Airfield :
LOGIN :

Register | Disclaimer

   EN    FR    IT 

 










Legend :    VFR   Marginal VFR   IFR   Intensive IFR   Very Intensive IFR
Visi :
Ceiling :
>= 8 km
>= 3000ft
5 to 8 km
1000 to 3000 ft
1500m to 5 km
500 to 1000 ft
800 to 1500m
200 to 500 ft
< 800m
< 200 ft
Symbols :   Thunderstorms  Fog  Heavy snow  Heavy precipitations  Wind > 20 kt
SIGMETs :     Misc.  Thunderstorms  Icing  Turbulence  Mountain Waves  Volcanic Ashes






- Airport Elevation : 325 ft
- IATA code : POX


LFPT - Pontoise

CURRENT METAR :
  • 281200Z AUTO 20014KT 9999 -RA BKN031 BKN037 BKN044 06/01 Q1014

EXPIRED METARs :
  • 281130Z AUTO 19013KT 9999 -RA SCT035 SCT044 BKN056 07/00 Q1015
  • 281100Z AUTO 18012KT 9999 FEW040 SCT056 06/00 Q1015
  • 281030Z AUTO 18011KT 9999 BKN043 BKN054 BKN064 06/01 Q1016
  • 281000Z AUTO 19010KT 9999 -RA BKN032 BKN039 05/01 Q1017
  • 280930Z AUTO 20013KT CAVOK 05/00 Q1017

TAF N/A
ATIS : +33 1 30 30 52 08



MET'MAP, your aeronautical weather chart ! - Copyright ORBIFLY December 2007 - Disclaimer

ORBIFLY MET'MAP TEAM :

Programming & Development : Alexandra Zaïnal
Concept & original design : Baudouin d'Aumeries
Assistance for programming : Marc-Olivier Méhu
Technical & hardware support : Manuel Goepfert

Contact : metmap@orbifly.com




SOURCES & CREDITS :

   NOAA